createdAt,value
2023-08-17T00:00:16.400Z,99
2023-08-17T00:01:29.582Z,99
2023-08-17T00:02:42.670Z,99
2023-08-17T00:03:55.644Z,99
2023-08-17T00:05:08.575Z,99
2023-08-17T00:06:21.536Z,99
2023-08-17T00:07:34.593Z,99
2023-08-17T00:08:47.270Z,99
2023-08-17T00:10:00.593Z,99
2023-08-17T00:11:13.582Z,99
2023-08-17T00:12:26.598Z,99
2023-08-17T00:13:39.655Z,99
2023-08-17T00:14:52.603Z,99
2023-08-17T00:16:05.605Z,99
2023-08-17T00:17:18.588Z,99
2023-08-17T00:18:31.555Z,99
2023-08-17T00:19:44.607Z,99
2023-08-17T00:20:57.769Z,99
2023-08-17T00:22:10.570Z,99
2023-08-17T00:23:23.544Z,99
2023-08-17T00:24:36.667Z,99
2023-08-17T00:25:49.609Z,99
2023-08-17T00:27:02.548Z,99
2023-08-17T00:28:15.600Z,99
2023-08-17T00:29:28.624Z,99
2023-08-17T00:30:41.568Z,99
2023-08-17T00:31:54.663Z,99
2023-08-17T00:33:07.568Z,99
2023-08-17T00:34:20.586Z,99
2023-08-17T00:35:33.574Z,99
2023-08-17T00:36:46.565Z,99
2023-08-17T00:37:59.525Z,99
2023-08-17T00:39:12.749Z,99
2023-08-17T00:40:25.540Z,99
2023-08-17T00:41:38.649Z,99
2023-08-17T00:42:51.656Z,99
2023-08-17T00:44:04.577Z,99
2023-08-17T00:45:17.673Z,99
2023-08-17T00:46:30.702Z,99
2023-08-17T00:47:43.609Z,99
2023-08-17T00:48:56.580Z,99
2023-08-17T00:50:09.582Z,99
2023-08-17T00:51:22.577Z,99
2023-08-17T00:52:35.608Z,99
2023-08-17T00:53:48.569Z,99
2023-08-17T00:55:01.533Z,99
2023-08-17T00:56:14.585Z,99
2023-08-17T00:57:27.756Z,99
2023-08-17T00:58:40.576Z,99
2023-08-17T01:00:04.553Z,99
2023-08-17T01:01:06.609Z,99
2023-08-17T01:02:19.608Z,99
2023-08-17T01:03:32.570Z,99
2023-08-17T01:04:45.692Z,99
2023-08-17T01:05:58.597Z,99
2023-08-17T01:07:11.575Z,99
2023-08-17T01:08:24.602Z,99
2023-08-17T01:09:37.567Z,99
2023-08-17T01:10:50.559Z,99
2023-08-17T01:12:03.668Z,99
2023-08-17T01:13:16.655Z,99
2023-08-17T01:14:29.526Z,99
2023-08-17T01:15:42.790Z,99
2023-08-17T01:16:55.691Z,99
2023-08-17T01:18:08.774Z,99
2023-08-17T01:19:21.568Z,99
2023-08-17T01:20:34.599Z,99
2023-08-17T01:21:47.639Z,99
2023-08-17T01:23:00.644Z,99
2023-08-17T01:24:13.563Z,99
2023-08-17T01:25:26.721Z,99
2023-08-17T01:26:39.553Z,99
2023-08-17T01:27:52.593Z,99
2023-08-17T01:29:05.544Z,99
2023-08-17T01:30:18.653Z,99
2023-08-17T01:31:31.438Z,99
2023-08-17T01:32:44.600Z,99
2023-08-17T01:33:57.548Z,99
2023-08-17T01:35:10.678Z,99
2023-08-17T01:36:23.584Z,99
2023-08-17T01:37:36.563Z,99
2023-08-17T01:38:49.615Z,99
2023-08-17T01:40:02.554Z,99
2023-08-17T01:41:15.654Z,99
2023-08-17T01:42:28.247Z,99
2023-08-17T01:43:41.571Z,99
2023-08-17T01:44:54.798Z,99
2023-08-17T01:46:07.598Z,99
2023-08-17T01:47:20.577Z,99
2023-08-17T01:48:33.605Z,99
2023-08-17T01:49:46.646Z,99
2023-08-17T01:50:59.582Z,99
2023-08-17T01:52:12.572Z,99
2023-08-17T01:53:25.662Z,99
2023-08-17T01:54:38.674Z,99
2023-08-17T01:55:54.800Z,99
2023-08-17T01:57:04.557Z,99
2023-08-17T01:58:17.559Z,99
2023-08-17T01:59:30.621Z,99
2023-08-17T02:00:43.591Z,99
2023-08-17T02:01:56.578Z,99
2023-08-17T02:03:09.649Z,99
2023-08-17T02:04:22.578Z,99
2023-08-17T02:05:35.556Z,99
2023-08-17T02:06:48.585Z,99
2023-08-17T02:08:01.564Z,99
2023-08-17T02:09:14.567Z,99
2023-08-17T02:10:27.643Z,99
2023-08-17T02:11:40.612Z,99
2023-08-17T02:13:01.994Z,99
2023-08-17T02:14:06.580Z,99
2023-08-17T02:15:19.585Z,99
2023-08-17T02:16:31.977Z,99
2023-08-17T02:17:45.633Z,99
2023-08-17T02:18:58.561Z,99
2023-08-17T02:20:11.567Z,99
2023-08-17T02:21:24.551Z,99
2023-08-17T02:22:37.572Z,99
2023-08-17T02:23:50.660Z,99
2023-08-17T02:25:03.539Z,99
2023-08-17T02:26:16.565Z,99
2023-08-17T02:27:29.608Z,99
2023-08-17T02:28:42.634Z,99
2023-08-17T02:29:55.618Z,99
2023-08-17T02:31:08.604Z,99
2023-08-17T02:32:21.270Z,99
2023-08-17T02:33:34.929Z,99
2023-08-17T02:34:47.587Z,99
2023-08-17T02:36:00.746Z,99
2023-08-17T02:37:13.586Z,99
2023-08-17T02:38:26.663Z,99
2023-08-17T02:39:39.584Z,99
2023-08-17T02:40:52.631Z,99
2023-08-17T02:42:05.640Z,99
2023-08-17T02:43:18.773Z,99
2023-08-17T02:44:31.569Z,99
2023-08-17T02:45:44.594Z,99
2023-08-17T02:46:57.595Z,99
2023-08-17T02:48:10.613Z,99
2023-08-17T02:49:23.562Z,99
2023-08-17T02:50:36.536Z,99
2023-08-17T02:51:49.637Z,99
2023-08-17T02:53:02.617Z,99
2023-08-17T02:54:15.565Z,99
2023-08-17T02:55:28.684Z,99
2023-08-17T02:56:41.590Z,99
2023-08-17T02:57:54.589Z,99
2023-08-17T02:59:07.551Z,99
2023-08-17T03:00:20.582Z,99
2023-08-17T03:01:33.656Z,99
2023-08-17T03:02:46.772Z,99
2023-08-17T03:03:59.671Z,99
2023-08-17T03:05:12.692Z,99
2023-08-17T03:06:25.584Z,99
2023-08-17T03:07:38.407Z,99
2023-08-17T03:08:51.649Z,99
2023-08-17T03:10:04.570Z,99
2023-08-17T03:11:17.543Z,99
2023-08-17T03:12:30.737Z,99
2023-08-17T03:13:43.575Z,99
2023-08-17T03:14:56.594Z,99
2023-08-17T03:16:09.587Z,99
2023-08-17T03:17:22.598Z,99
2023-08-17T03:18:35.592Z,99
2023-08-17T03:19:48.589Z,99
2023-08-17T03:21:01.548Z,99
2023-08-17T03:22:14.571Z,99
2023-08-17T03:23:27.758Z,99
2023-08-17T03:24:40.629Z,99
2023-08-17T03:25:53.571Z,99
2023-08-17T03:27:06.577Z,99
2023-08-17T03:28:19.613Z,99
2023-08-17T03:29:32.578Z,99
2023-08-17T03:30:45.620Z,99
2023-08-17T03:31:58.760Z,99
2023-08-17T03:33:11.633Z,99
2023-08-17T03:34:24.666Z,99
2023-08-17T03:35:37.600Z,99
2023-08-17T03:36:50.456Z,99
2023-08-17T03:38:03.580Z,99
2023-08-17T03:39:16.588Z,99
2023-08-17T03:40:29.601Z,99
2023-08-17T03:41:42.567Z,99
2023-08-17T03:42:55.764Z,99
2023-08-17T03:44:08.652Z,99
2023-08-17T03:45:21.605Z,99
2023-08-17T03:46:34.602Z,99
2023-08-17T03:47:47.774Z,99
2023-08-17T03:49:00.628Z,99
2023-08-17T03:50:13.317Z,99
2023-08-17T03:51:27.361Z,99
2023-08-17T03:52:39.612Z,99
2023-08-17T03:53:52.763Z,99
2023-08-17T03:55:05.598Z,99
2023-08-17T03:56:18.591Z,99
2023-08-17T03:57:33.886Z,99
2023-08-17T03:58:44.579Z,99
2023-08-17T03:59:57.591Z,99
2023-08-17T04:01:10.589Z,99
2023-08-17T04:02:23.638Z,99
2023-08-17T04:03:36.665Z,99
2023-08-17T04:04:49.601Z,99
2023-08-17T04:06:02.578Z,99
2023-08-17T04:07:15.744Z,99
2023-08-17T04:08:28.573Z,99
2023-08-17T04:09:41.616Z,99
2023-08-17T04:10:54.587Z,99
2023-08-17T04:12:07.572Z,99
2023-08-17T04:13:20.589Z,99
2023-08-17T04:14:33.626Z,99
2023-08-17T04:15:46.594Z,99
2023-08-17T04:16:59.620Z,99
2023-08-17T04:18:12.645Z,99
2023-08-17T04:19:25.615Z,99
2023-08-17T04:20:38.578Z,99
2023-08-17T04:21:51.570Z,99
2023-08-17T04:23:04.581Z,99
2023-08-17T04:24:17.665Z,99
2023-08-17T04:25:30.759Z,99
2023-08-17T04:26:43.587Z,99
2023-08-17T04:27:56.643Z,99
2023-08-17T04:29:09.616Z,99
2023-08-17T04:30:22.628Z,99
2023-08-17T04:31:35.620Z,99
2023-08-17T04:32:48.630Z,99
2023-08-17T04:34:01.534Z,99
2023-08-17T04:35:14.563Z,99
2023-08-17T04:36:27.593Z,99
2023-08-17T04:37:40.597Z,99
2023-08-17T04:38:53.613Z,99
2023-08-17T04:40:06.645Z,99
2023-08-17T04:41:19.657Z,99
2023-08-17T04:42:32.586Z,99
2023-08-17T04:43:45.715Z,99
2023-08-17T04:44:58.579Z,99
2023-08-17T04:46:11.686Z,99
2023-08-17T04:47:24.822Z,99
2023-08-17T04:48:37.547Z,99
2023-08-17T04:49:50.748Z,99
2023-08-17T04:51:03.756Z,99
2023-08-17T04:52:16.759Z,99
2023-08-17T04:53:29.586Z,99
2023-08-17T04:54:42.673Z,99
2023-08-17T04:55:55.672Z,99
2023-08-17T04:57:08.199Z,99
2023-08-17T04:58:21.229Z,99
2023-08-17T04:59:34.224Z,99
2023-08-17T05:00:47.306Z,99
2023-08-17T05:02:00.083Z,99
2023-08-17T05:03:24.058Z,99
2023-08-17T05:04:26.215Z,99
2023-08-17T05:05:39.280Z,99
2023-08-17T05:06:52.209Z,99
2023-08-17T05:08:05.297Z,99
2023-08-17T05:09:18.295Z,99
2023-08-17T05:10:31.349Z,99
2023-08-17T05:11:44.213Z,99
2023-08-17T05:12:57.210Z,99
2023-08-17T05:14:10.266Z,99
2023-08-17T05:15:23.236Z,99
2023-08-17T05:16:36.204Z,99
2023-08-17T05:17:48.892Z,99
2023-08-17T05:19:02.216Z,99
2023-08-17T05:20:15.224Z,99
2023-08-17T05:21:28.230Z,99
2023-08-17T05:22:41.235Z,99
2023-08-17T05:23:54.217Z,99
2023-08-17T05:25:07.287Z,99
2023-08-17T05:26:20.266Z,99
2023-08-17T05:27:33.398Z,99
2023-08-17T05:28:46.201Z,99
2023-08-17T05:29:59.218Z,99
2023-08-17T05:31:12.267Z,99
2023-08-17T05:32:25.242Z,99
2023-08-17T05:33:38.270Z,99
2023-08-17T05:34:51.482Z,99
2023-08-17T05:36:04.219Z,99
2023-08-17T05:37:17.302Z,99
2023-08-17T05:38:30.275Z,99
2023-08-17T05:39:43.317Z,99
2023-08-17T05:40:56.218Z,99
2023-08-17T05:42:09.227Z,99
2023-08-17T05:43:22.219Z,99
2023-08-17T05:44:35.255Z,99
2023-08-17T05:45:48.275Z,99
2023-08-17T05:47:01.217Z,99
2023-08-17T05:48:14.297Z,99
2023-08-17T05:49:27.314Z,99
2023-08-17T05:50:40.206Z,99
2023-08-17T05:51:53.210Z,99
2023-08-17T05:53:06.562Z,99
2023-08-17T05:54:19.256Z,99
2023-08-17T05:55:32.205Z,99
2023-08-17T05:56:45.207Z,99
2023-08-17T05:57:58.213Z,99
2023-08-17T05:59:11.395Z,99
2023-08-17T06:00:24.211Z,99
2023-08-17T06:01:37.384Z,99
2023-08-17T06:02:50.266Z,99
2023-08-17T06:04:04.661Z,99
2023-08-17T06:05:16.232Z,99
2023-08-17T06:06:29.285Z,99
2023-08-17T06:07:42.389Z,99
2023-08-17T06:08:55.198Z,99
2023-08-17T06:10:08.198Z,99
2023-08-17T06:11:21.210Z,99
2023-08-17T06:12:34.238Z,99
2023-08-17T06:13:47.211Z,99
2023-08-17T06:15:00.150Z,99
2023-08-17T06:16:13.387Z,99
2023-08-17T06:17:26.477Z,99
2023-08-17T06:18:39.213Z,99
2023-08-17T06:19:52.237Z,99
2023-08-17T06:21:05.228Z,99
2023-08-17T06:22:18.221Z,99
2023-08-17T06:23:31.195Z,99
2023-08-17T06:24:44.057Z,99
2023-08-17T06:25:57.170Z,99
2023-08-17T06:27:10.199Z,99
2023-08-17T06:28:23.401Z,99
2023-08-17T06:29:36.251Z,99
2023-08-17T06:30:49.257Z,99
2023-08-17T06:32:02.207Z,99
2023-08-17T06:33:15.248Z,99
2023-08-17T06:34:28.296Z,99
2023-08-17T06:35:41.223Z,99
2023-08-17T06:36:54.266Z,99
2023-08-17T06:38:07.200Z,99
2023-08-17T06:39:20.310Z,99
2023-08-17T06:40:33.200Z,99
2023-08-17T06:41:46.247Z,99
2023-08-17T06:42:59.193Z,99
2023-08-17T06:44:12.204Z,99
2023-08-17T06:45:25.208Z,99
2023-08-17T06:46:38.325Z,99
2023-08-17T06:47:51.315Z,99
2023-08-17T06:49:04.238Z,99
2023-08-17T06:50:17.215Z,99
2023-08-17T06:51:30.332Z,99
2023-08-17T06:52:43.253Z,99
2023-08-17T06:53:56.256Z,99
2023-08-17T06:55:09.258Z,99
2023-08-17T06:56:22.371Z,99
2023-08-17T06:57:35.283Z,99
2023-08-17T06:58:48.250Z,99
2023-08-17T07:00:01.374Z,99
2023-08-17T07:01:14.209Z,99
2023-08-17T07:02:39.229Z,99
2023-08-17T07:03:40.212Z,99
2023-08-17T07:04:53.270Z,99
2023-08-17T07:06:06.201Z,99
2023-08-17T07:07:19.203Z,99
2023-08-17T07:08:32.371Z,99
2023-08-17T07:09:45.208Z,99
2023-08-17T07:10:58.327Z,99
2023-08-17T07:12:11.209Z,99
2023-08-17T07:13:24.262Z,99
2023-08-17T07:14:37.162Z,99
2023-08-17T07:15:50.383Z,99
2023-08-17T07:17:03.253Z,99
2023-08-17T07:18:16.397Z,99
2023-08-17T07:19:52.513Z,99
2023-08-17T07:20:42.312Z,99
2023-08-17T07:21:55.238Z,99
2023-08-17T07:23:08.853Z,99
2023-08-17T07:24:21.275Z,99
2023-08-17T07:25:34.336Z,99
2023-08-17T07:26:47.283Z,99
2023-08-17T07:28:00.332Z,99
2023-08-17T07:29:13.309Z,99
2023-08-17T07:30:26.235Z,99
2023-08-17T07:31:39.894Z,99
2023-08-17T07:32:52.267Z,99
2023-08-17T07:34:05.083Z,99
2023-08-17T07:35:18.184Z,99
2023-08-17T07:36:31.223Z,99
2023-08-17T07:37:53.223Z,99
2023-08-17T07:38:57.214Z,99
2023-08-17T07:40:10.003Z,99
2023-08-17T07:41:23.229Z,99
2023-08-17T07:42:36.260Z,99
2023-08-17T07:43:49.065Z,99
2023-08-17T07:45:02.300Z,99
2023-08-17T07:46:15.311Z,99
2023-08-17T07:47:28.641Z,99
2023-08-17T07:48:41.367Z,99
2023-08-17T07:49:54.328Z,99
2023-08-17T07:51:07.035Z,99
2023-08-17T07:52:20.201Z,99
2023-08-17T07:53:33.185Z,99
2023-08-17T07:54:46.259Z,99
2023-08-17T07:55:59.306Z,99
2023-08-17T07:57:12.216Z,99
2023-08-17T07:58:25.293Z,99
2023-08-17T07:59:38.415Z,99
2023-08-17T08:00:51.335Z,99
2023-08-17T08:02:03.826Z,99
2023-08-17T08:03:17.527Z,99
2023-08-17T08:04:30.358Z,99
2023-08-17T08:05:43.426Z,99
2023-08-17T08:06:55.885Z,99
2023-08-17T08:08:09.240Z,99
2023-08-17T08:09:22.307Z,99
2023-08-17T08:10:35.195Z,99
2023-08-17T08:11:48.224Z,99
2023-08-17T08:13:01.200Z,99
2023-08-17T08:14:14.276Z,99
2023-08-17T08:15:27.274Z,99
2023-08-17T08:16:40.284Z,99
2023-08-17T08:17:53.194Z,99
2023-08-17T08:19:06.354Z,99
2023-08-17T08:20:19.196Z,99
2023-08-17T08:21:32.200Z,99
2023-08-17T08:22:45.445Z,99
2023-08-17T08:23:58.186Z,99
2023-08-17T08:25:11.261Z,99
2023-08-17T08:26:24.199Z,99
2023-08-17T08:27:37.597Z,99
2023-08-17T08:28:50.306Z,99
2023-08-17T08:30:03.375Z,99
2023-08-17T08:31:16.234Z,99
2023-08-17T08:32:30.820Z,99
2023-08-17T08:33:42.254Z,99
2023-08-17T08:34:55.197Z,99
2023-08-17T08:36:08.209Z,99
2023-08-17T08:37:21.207Z,99
2023-08-17T08:38:34.298Z,99
2023-08-17T08:39:47.193Z,99
2023-08-17T08:41:00.232Z,99
2023-08-17T08:42:13.223Z,99
2023-08-17T08:43:26.254Z,99
2023-08-17T08:44:39.346Z,99
2023-08-17T08:45:52.236Z,99
2023-08-17T08:47:05.474Z,99
2023-08-17T08:48:18.407Z,99
2023-08-17T08:49:31.302Z,99
2023-08-17T08:50:44.189Z,99
2023-08-17T08:51:57.184Z,99
2023-08-17T08:53:10.182Z,99
2023-08-17T08:54:23.253Z,99
2023-08-17T08:55:37.624Z,99
2023-08-17T08:56:49.289Z,99
2023-08-17T08:58:02.208Z,99
2023-08-17T08:59:15.215Z,99
2023-08-17T09:00:28.244Z,99
2023-08-17T09:01:41.263Z,99
2023-08-17T09:02:54.292Z,99
2023-08-17T09:04:07.208Z,99
2023-08-17T09:05:20.282Z,99
2023-08-17T09:06:33.230Z,99
2023-08-17T09:07:46.290Z,99
2023-08-17T09:08:59.303Z,99
2023-08-17T09:10:12.179Z,99
2023-08-17T09:11:25.191Z,99
2023-08-17T09:12:41.761Z,99
2023-08-17T09:13:54.253Z,99
2023-08-17T09:15:04.255Z,99
2023-08-17T09:16:17.238Z,99
2023-08-17T09:17:30.211Z,99
2023-08-17T09:18:43.381Z,99
2023-08-17T09:19:56.227Z,99
2023-08-17T09:21:09.220Z,99
2023-08-17T09:22:22.230Z,99
2023-08-17T09:23:38.218Z,99
2023-08-17T09:24:48.246Z,99
2023-08-17T09:26:05.771Z,99
2023-08-17T09:27:14.171Z,99
2023-08-17T09:28:27.309Z,99
2023-08-17T09:29:40.326Z,99
2023-08-17T09:30:53.242Z,99
2023-08-17T09:32:06.328Z,99
2023-08-17T09:33:19.214Z,99
2023-08-17T09:34:32.221Z,99
2023-08-17T09:35:45.260Z,99
2023-08-17T09:37:03.698Z,99
2023-08-17T09:38:11.287Z,99
2023-08-17T09:39:24.238Z,99
2023-08-17T09:40:37.327Z,99
2023-08-17T09:41:50.320Z,99
2023-08-17T09:43:03.367Z,99
2023-08-17T09:44:16.188Z,99
2023-08-17T09:45:29.264Z,99
2023-08-17T09:46:42.300Z,99
2023-08-17T09:47:55.283Z,99
2023-08-17T09:49:08.197Z,99
2023-08-17T09:50:21.187Z,99
2023-08-17T09:51:34.221Z,99
2023-08-17T09:52:51.140Z,99
2023-08-17T09:54:01.884Z,99
2023-08-17T09:55:13.250Z,99
2023-08-17T09:56:26.199Z,99
2023-08-17T09:57:39.216Z,99
2023-08-17T09:58:52.056Z,99
2023-08-17T10:00:05.200Z,99
2023-08-17T10:01:18.236Z,99
2023-08-17T10:02:31.217Z,99
2023-08-17T10:03:44.236Z,99
2023-08-17T10:04:57.243Z,99
2023-08-17T10:06:10.212Z,99
2023-08-17T10:07:23.181Z,99
2023-08-17T10:08:40.642Z,99
2023-08-17T10:09:52.221Z,99
2023-08-17T10:11:02.180Z,99
2023-08-17T10:12:15.439Z,99
2023-08-17T10:13:28.240Z,99
2023-08-17T10:14:41.266Z,99
2023-08-17T10:15:54.204Z,99
2023-08-17T10:17:07.172Z,99
2023-08-17T10:18:20.228Z,99
2023-08-17T10:19:33.200Z,99
2023-08-17T10:20:46.344Z,99
2023-08-17T10:21:59.335Z,99
2023-08-17T10:23:12.203Z,99
2023-08-17T10:24:25.230Z,99
2023-08-17T10:25:38.463Z,99
2023-08-17T10:26:55.179Z,99
2023-08-17T10:28:04.304Z,99
2023-08-17T10:29:18.488Z,99
2023-08-17T10:30:30.194Z,99
2023-08-17T10:31:43.344Z,99
2023-08-17T10:32:56.348Z,99
2023-08-17T10:34:09.248Z,99
2023-08-17T10:35:22.274Z,99
2023-08-17T10:36:35.294Z,99
2023-08-17T10:37:48.205Z,99
2023-08-17T10:39:01.210Z,99
2023-08-17T10:40:17.433Z,99
2023-08-17T10:41:27.320Z,99
2023-08-17T10:42:40.391Z,99
2023-08-17T10:43:53.220Z,99
2023-08-17T10:45:06.243Z,99
2023-08-17T10:46:19.157Z,99
2023-08-17T10:47:36.292Z,99
2023-08-17T10:48:45.218Z,99
2023-08-17T10:49:58.201Z,99
2023-08-17T10:51:11.226Z,99
2023-08-17T10:52:24.605Z,99
2023-08-17T10:53:37.251Z,99
2023-08-17T10:54:50.376Z,99
2023-08-17T10:56:03.205Z,99
2023-08-17T10:57:16.273Z,99
2023-08-17T10:58:29.217Z,99
2023-08-17T10:59:42.204Z,99
2023-08-17T11:00:55.336Z,99
2023-08-17T11:02:08.211Z,99
2023-08-17T11:03:20.724Z,99
2023-08-17T11:04:34.213Z,99
2023-08-17T11:05:47.229Z,99
2023-08-17T11:07:00.308Z,99
2023-08-17T11:08:13.213Z,99
2023-08-17T11:09:26.284Z,99
2023-08-17T11:10:39.405Z,99
2023-08-17T11:11:52.226Z,99
2023-08-17T11:13:05.196Z,99
2023-08-17T11:14:18.360Z,99
2023-08-17T11:15:31.356Z,99
2023-08-17T11:16:44.290Z,99
2023-08-17T11:17:57.248Z,99
2023-08-17T11:19:13.829Z,99
2023-08-17T11:20:23.366Z,99
2023-08-17T11:21:36.221Z,99
2023-08-17T11:22:49.246Z,99
2023-08-17T11:24:02.194Z,99
2023-08-17T11:25:15.277Z,99
2023-08-17T11:26:28.253Z,99
2023-08-17T11:27:41.336Z,99
2023-08-17T11:28:54.321Z,99
2023-08-17T11:30:07.216Z,99
2023-08-17T11:31:20.389Z,99
2023-08-17T11:32:33.250Z,99
2023-08-17T11:33:46.384Z,99
2023-08-17T11:35:00.350Z,99
2023-08-17T11:36:12.414Z,99
2023-08-17T11:37:25.690Z,99
2023-08-17T11:38:38.272Z,99
2023-08-17T11:39:51.256Z,99
2023-08-17T11:41:04.314Z,99
2023-08-17T11:42:20.600Z,99
2023-08-17T11:43:30.235Z,98
2023-08-17T11:44:43.186Z,98
2023-08-17T11:45:56.310Z,98
2023-08-17T11:47:09.265Z,98
2023-08-17T11:48:22.393Z,98
2023-08-17T11:49:38.835Z,98
2023-08-17T11:50:48.328Z,98
2023-08-17T11:52:01.237Z,98
2023-08-17T11:53:14.253Z,98
2023-08-17T11:54:27.399Z,98
2023-08-17T11:55:40.250Z,98
2023-08-17T11:56:53.371Z,98
2023-08-17T11:58:10.422Z,98
2023-08-17T11:59:19.222Z,98
2023-08-17T12:00:32.359Z,98
2023-08-17T12:01:45.236Z,97
2023-08-17T12:02:58.462Z,97
2023-08-17T12:04:11.416Z,97
2023-08-17T12:05:24.364Z,97
2023-08-17T12:06:37.272Z,97
2023-08-17T12:07:50.245Z,97
2023-08-17T12:09:03.218Z,96
2023-08-17T12:10:16.361Z,96
2023-08-17T12:11:29.179Z,96
2023-08-17T12:12:42.200Z,96
2023-08-17T12:13:55.233Z,96
2023-08-17T12:15:08.198Z,96
2023-08-17T12:16:21.328Z,96
2023-08-17T12:17:34.383Z,96
2023-08-17T12:18:47.204Z,96
2023-08-17T12:20:00.322Z,96
2023-08-17T12:21:13.269Z,95
2023-08-17T12:22:26.450Z,95
2023-08-17T12:23:39.223Z,95
2023-08-17T12:24:52.194Z,95
2023-08-17T12:26:05.261Z,95
2023-08-17T12:27:18.268Z,94
2023-08-17T12:28:31.198Z,94
2023-08-17T12:29:44.361Z,94
2023-08-17T12:30:57.352Z,94
2023-08-17T12:32:10.217Z,94
2023-08-17T12:33:23.432Z,94
2023-08-17T12:34:36.235Z,94
2023-08-17T12:35:49.204Z,94
2023-08-17T12:37:02.191Z,94
2023-08-17T12:38:15.185Z,94
2023-08-17T12:39:28.290Z,94
2023-08-17T12:40:41.214Z,94
2023-08-17T12:41:54.353Z,93
2023-08-17T12:43:07.210Z,92
2023-08-17T12:44:20.212Z,92
2023-08-17T12:45:33.231Z,92
2023-08-17T12:46:46.328Z,92
2023-08-17T12:47:59.227Z,92
2023-08-17T12:49:13.275Z,92
2023-08-17T12:50:25.225Z,92
2023-08-17T12:51:38.199Z,92
2023-08-17T12:52:51.381Z,93
2023-08-17T12:54:03.908Z,93
2023-08-17T12:55:17.184Z,92
2023-08-17T12:56:30.258Z,92
2023-08-17T12:57:43.405Z,92
2023-08-17T12:58:56.284Z,92
2023-08-17T13:00:09.226Z,92
2023-08-17T13:01:22.322Z,92
2023-08-17T13:02:35.287Z,91
2023-08-17T13:03:48.331Z,91
2023-08-17T13:05:01.385Z,91
2023-08-17T13:06:14.197Z,90
2023-08-17T13:07:27.262Z,91
2023-08-17T13:08:40.293Z,90
2023-08-17T13:09:53.293Z,90
2023-08-17T13:11:06.312Z,90
2023-08-17T13:12:19.316Z,90
2023-08-17T13:13:32.198Z,89
2023-08-17T13:14:44.920Z,89
2023-08-17T13:15:58.186Z,89
2023-08-17T13:17:11.273Z,89
2023-08-17T13:18:24.221Z,89
2023-08-17T13:19:37.274Z,89
2023-08-17T13:20:50.752Z,89
2023-08-17T13:22:03.188Z,89
2023-08-17T13:23:16.193Z,89
2023-08-17T13:24:29.223Z,89
2023-08-17T13:25:42.244Z,89
2023-08-17T13:26:55.225Z,90
2023-08-17T13:28:08.177Z,90
2023-08-17T13:29:21.285Z,89
2023-08-17T13:30:34.084Z,89
2023-08-17T13:31:47.204Z,89
2023-08-17T13:33:00.358Z,89
2023-08-17T13:34:13.237Z,88
2023-08-17T13:35:26.277Z,88
2023-08-17T13:36:39.253Z,88
2023-08-17T13:37:52.201Z,88
2023-08-17T13:39:05.339Z,88
2023-08-17T13:40:18.190Z,88
2023-08-17T13:41:31.194Z,88
2023-08-17T13:42:44.165Z,88
2023-08-17T13:44:00.808Z,88
2023-08-17T13:45:10.146Z,88
2023-08-17T13:46:23.254Z,88
2023-08-17T13:47:35.642Z,88
2023-08-17T13:48:49.183Z,88
2023-08-17T13:50:02.160Z,88
2023-08-17T13:51:15.171Z,88
2023-08-17T13:52:28.489Z,88
2023-08-17T13:53:41.157Z,88
2023-08-17T13:54:54.258Z,88
2023-08-17T13:56:07.216Z,87
2023-08-17T13:57:20.263Z,87
2023-08-17T13:58:33.230Z,87
2023-08-17T13:59:46.188Z,87
2023-08-17T14:00:59.358Z,87
2023-08-17T14:02:12.189Z,87
2023-08-17T14:03:25.289Z,87
2023-08-17T14:04:38.307Z,86
2023-08-17T14:05:51.258Z,86
2023-08-17T14:07:04.242Z,87
2023-08-17T14:08:17.324Z,87
2023-08-17T14:09:30.296Z,87
2023-08-17T14:10:43.332Z,87
2023-08-17T14:11:56.412Z,87
2023-08-17T14:13:09.193Z,87
2023-08-17T14:14:21.916Z,86
2023-08-17T14:15:35.210Z,86
2023-08-17T14:16:48.263Z,86
2023-08-17T14:18:01.323Z,87
2023-08-17T14:19:13.952Z,87
2023-08-17T14:20:27.213Z,86
2023-08-17T14:21:40.154Z,86
2023-08-17T14:22:53.184Z,86
2023-08-17T14:24:06.165Z,86
2023-08-17T14:25:19.188Z,86
2023-08-17T14:26:35.151Z,86
2023-08-17T14:27:45.268Z,86
2023-08-17T14:28:58.306Z,86
2023-08-17T14:30:11.172Z,85
2023-08-17T14:31:24.203Z,85
2023-08-17T14:32:37.191Z,85
2023-08-17T14:33:50.207Z,85
2023-08-17T14:35:02.866Z,85
2023-08-17T14:36:20.661Z,84
2023-08-17T14:37:29.522Z,84
2023-08-17T14:38:42.138Z,84
2023-08-17T14:39:55.370Z,83
2023-08-17T14:41:08.305Z,83
2023-08-17T14:42:21.323Z,83
2023-08-17T14:43:34.231Z,83
2023-08-17T14:44:47.199Z,83
2023-08-17T14:46:00.223Z,83
2023-08-17T14:47:14.828Z,83
2023-08-17T14:48:26.260Z,83
2023-08-17T14:49:39.325Z,83
2023-08-17T14:50:52.167Z,83
2023-08-17T14:52:05.184Z,83
2023-08-17T14:53:18.214Z,83
2023-08-17T14:54:33.144Z,83
2023-08-17T14:56:58.314Z,84
2023-08-17T14:58:10.164Z,84
2023-08-17T14:59:23.308Z,84
2023-08-17T15:00:36.189Z,84
2023-08-17T15:01:49.246Z,84
2023-08-17T15:03:02.268Z,84
2023-08-17T15:04:15.221Z,84
2023-08-17T15:05:29.539Z,85
2023-08-17T15:06:42.748Z,84
2023-08-17T15:07:54.353Z,84
2023-08-17T15:09:07.354Z,84
2023-08-17T15:10:20.315Z,84
2023-08-17T15:11:33.178Z,83
2023-08-17T15:12:46.135Z,83
2023-08-17T15:13:59.196Z,82
2023-08-17T15:15:12.233Z,82
2023-08-17T15:16:26.409Z,83
2023-08-17T15:17:38.276Z,82
2023-08-17T15:18:51.158Z,82
2023-08-17T15:20:04.167Z,82
2023-08-17T15:21:17.193Z,82
2023-08-17T15:22:30.216Z,82
2023-08-17T15:23:43.227Z,82
2023-08-17T15:24:56.232Z,82
2023-08-17T15:26:09.171Z,82
2023-08-17T15:27:22.211Z,83
2023-08-17T15:28:35.281Z,82
2023-08-17T15:29:48.164Z,82
2023-08-17T15:31:01.180Z,82
2023-08-17T15:32:14.174Z,82
2023-08-17T15:33:27.225Z,82
2023-08-17T15:34:40.231Z,82
2023-08-17T15:35:53.154Z,82
2023-08-17T15:37:06.241Z,82
2023-08-17T15:38:19.282Z,82
2023-08-17T15:39:32.180Z,82
2023-08-17T15:40:45.200Z,82
2023-08-17T15:41:58.223Z,82
2023-08-17T15:43:11.212Z,82
2023-08-17T15:44:24.229Z,82
2023-08-17T15:45:37.188Z,82
2023-08-17T15:46:50.144Z,82
2023-08-17T15:48:03.182Z,82
2023-08-17T15:49:16.231Z,82
2023-08-17T15:50:29.152Z,82
2023-08-17T15:51:42.183Z,82
2023-08-17T15:52:55.165Z,82
2023-08-17T15:54:08.240Z,82
2023-08-17T15:55:21.233Z,82
2023-08-17T15:56:34.126Z,82
2023-08-17T15:57:47.251Z,82
2023-08-17T15:59:00.019Z,82
2023-08-17T16:00:13.052Z,82
2023-08-17T16:01:26.216Z,82
2023-08-17T16:02:39.255Z,82
2023-08-17T16:03:52.222Z,82
2023-08-17T16:05:05.422Z,82
2023-08-17T16:06:18.356Z,83
2023-08-17T16:07:31.382Z,82
2023-08-17T16:08:49.042Z,82
2023-08-17T16:09:57.270Z,82
2023-08-17T16:11:10.296Z,82
2023-08-17T16:12:23.072Z,82
2023-08-17T16:13:36.207Z,82
2023-08-17T16:14:50.497Z,82
2023-08-17T16:16:02.175Z,82
2023-08-17T16:17:15.249Z,82
2023-08-17T16:18:28.197Z,82
2023-08-17T16:19:41.334Z,82
2023-08-17T16:20:54.208Z,82
2023-08-17T16:22:07.241Z,83
2023-08-17T16:23:23.265Z,83
2023-08-17T16:24:33.154Z,82
2023-08-17T16:25:46.198Z,82
2023-08-17T16:26:59.237Z,82
2023-08-17T16:29:25.176Z,82
2023-08-17T16:30:38.079Z,82
2023-08-17T16:31:51.031Z,82
2023-08-17T16:33:04.346Z,82
2023-08-17T16:34:20.232Z,82
2023-08-17T16:35:30.225Z,82
2023-08-17T16:36:43.044Z,82
2023-08-17T16:37:56.066Z,83
2023-08-17T16:39:09.185Z,82
2023-08-17T16:40:37.460Z,82
2023-08-17T16:41:35.179Z,83
2023-08-17T16:42:48.327Z,83
2023-08-17T16:44:05.886Z,83
2023-08-17T16:45:14.079Z,83
2023-08-17T16:46:26.945Z,83
2023-08-17T16:47:40.098Z,83
2023-08-17T16:48:52.538Z,83
2023-08-17T16:50:06.168Z,83
2023-08-17T16:51:19.179Z,83
2023-08-17T16:52:32.348Z,83
2023-08-17T16:53:45.125Z,83
2023-08-17T16:54:58.122Z,83
2023-08-17T16:56:11.049Z,83
2023-08-17T16:57:24.258Z,83
2023-08-17T16:58:37.059Z,83
2023-08-17T16:59:50.160Z,83
2023-08-17T17:01:13.481Z,83
2023-08-17T17:02:16.309Z,83
2023-08-17T17:03:29.114Z,83
2023-08-17T17:04:42.199Z,83
2023-08-17T17:05:55.400Z,83
2023-08-17T17:07:08.355Z,83
2023-08-17T17:08:21.316Z,83
2023-08-17T17:09:34.158Z,83
2023-08-17T17:10:47.402Z,83
2023-08-17T17:12:00.202Z,83
2023-08-17T17:13:13.103Z,83
2023-08-17T17:14:26.069Z,83
2023-08-17T17:15:39.269Z,83
2023-08-17T17:16:52.038Z,83
2023-08-17T17:18:05.056Z,83
2023-08-17T17:19:18.185Z,83
2023-08-17T17:20:31.155Z,83
2023-08-17T17:21:44.349Z,83
2023-08-17T17:22:57.168Z,83